createdAt,value
2022-10-08T01:17:22.765Z,1.33
2022-10-08T01:20:07.898Z,1.27
2022-10-08T01:22:59.470Z,1.33
2022-10-08T01:25:55.957Z,1.30
2022-10-08T01:28:32.372Z,1.30
2022-10-08T01:31:19.165Z,1.60
2022-10-08T01:33:53.035Z,1.88
2022-10-08T01:36:21.445Z,1.30
2022-10-08T01:38:54.586Z,1.35
2022-10-08T01:41:25.753Z,1.30
2022-10-08T01:44:08.493Z,1.40
2022-10-08T01:46:39.425Z,1.77
2022-10-08T01:49:18.510Z,1.58
2022-10-08T01:51:52.902Z,1.58
2022-10-08T01:54:21.849Z,1.70
2022-10-08T01:56:50.702Z,1.60
2022-10-08T01:59:25.964Z,1.80
2022-10-08T02:01:59.510Z,1.77
2022-10-08T02:04:37.297Z,1.30
2022-10-08T02:07:30.406Z,1.70
2022-10-08T02:10:16.837Z,1.58
2022-10-08T02:12:45.641Z,1.63
2022-10-08T02:15:24.046Z,1.80
2022-10-08T02:17:57.687Z,1.70
2022-10-08T02:20:44.785Z,1.42
2022-10-08T02:23:31.552Z,1.88
2022-10-08T02:26:01.422Z,1.45
2022-10-08T02:31:06.734Z,1.90
2022-10-08T02:33:45.945Z,1.38
2022-10-08T02:36:17.075Z,1.70
2022-10-08T02:38:52.540Z,1.63
2022-10-08T02:41:23.646Z,1.30
2022-10-08T02:43:53.560Z,1.50
2022-10-08T02:46:24.218Z,1.90
2022-10-08T02:49:05.304Z,1.50
2022-10-08T02:51:37.483Z,1.50
2022-10-08T02:54:07.190Z,1.70
2022-10-08T02:56:46.903Z,1.77
2022-10-08T02:59:18.531Z,1.80
2022-10-08T03:01:48.214Z,1.65
2022-10-08T03:04:28.047Z,1.67
2022-10-08T03:06:56.947Z,2.13
2022-10-08T03:09:34.438Z,2.20
2022-10-08T03:12:04.970Z,2.10
2022-10-08T03:14:36.754Z,2.13
2022-10-08T03:17:05.983Z,1.75
2022-10-08T03:19:35.075Z,1.75
2022-10-08T03:22:03.223Z,2.15
2022-10-08T03:24:30.420Z,1.70
2022-10-08T03:26:57.522Z,1.90
2022-10-08T03:29:25.362Z,1.90
2022-10-08T03:31:52.879Z,2.40
2022-10-08T03:34:20.239Z,2.00
2022-10-08T03:36:50.605Z,2.10
2022-10-08T03:39:18.999Z,2.28
2022-10-08T03:41:46.474Z,2.30
2022-10-08T03:44:16.466Z,2.00
2022-10-08T03:46:43.982Z,2.00
2022-10-08T03:49:11.311Z,2.47
2022-10-08T03:51:38.652Z,2.20
2022-10-08T03:54:06.863Z,2.50
2022-10-08T03:56:36.854Z,2.50
2022-10-08T03:59:04.258Z,2.22
2022-10-08T04:01:31.966Z,3.20
2022-10-08T04:03:59.220Z,2.60
2022-10-08T04:06:27.575Z,2.55
2022-10-08T04:09:00.854Z,2.25
2022-10-08T04:11:29.503Z,2.13
2022-10-08T04:13:56.753Z,1.90
2022-10-08T04:16:24.091Z,2.00
2022-10-08T04:18:52.527Z,2.03
2022-10-08T04:21:20.169Z,2.28
2022-10-08T04:23:57.463Z,2.20
2022-10-08T04:26:24.679Z,2.15
2022-10-08T04:28:52.175Z,2.15
2022-10-08T04:31:23.300Z,2.25
2022-10-08T04:33:53.099Z,1.80
2022-10-08T04:36:24.920Z,2.40
2022-10-08T04:38:54.723Z,2.22
2022-10-08T04:41:24.903Z,3.25
2022-10-08T04:44:01.446Z,2.17
2022-10-08T04:46:28.970Z,3.05
2022-10-08T04:48:57.111Z,2.58
2022-10-08T04:51:26.539Z,2.55
2022-10-08T04:53:57.103Z,4.15
2022-10-08T04:56:37.741Z,2.55
2022-10-08T04:59:05.423Z,2.85
2022-10-08T05:01:33.111Z,3.95
2022-10-08T05:04:00.619Z,5.88
2022-10-08T05:06:34.839Z,2.95
2022-10-08T05:09:06.008Z,2.80
2022-10-08T05:11:33.916Z,2.30
2022-10-08T05:14:01.594Z,2.85
2022-10-08T05:16:28.899Z,3.67
2022-10-08T05:18:57.197Z,4.18
2022-10-08T05:21:27.304Z,3.03
2022-10-08T05:24:05.209Z,13.73
2022-10-08T05:26:59.069Z,3.13
2022-10-08T05:29:28.539Z,6.25
2022-10-08T05:31:55.787Z,4.30
2022-10-08T05:34:23.384Z,3.47
2022-10-08T05:36:50.840Z,3.22
2022-10-08T05:39:18.196Z,2.92
2022-10-08T05:41:45.241Z,4.13
2022-10-08T05:44:12.740Z,3.40
2022-10-08T05:46:40.360Z,3.28
2022-10-08T05:49:10.736Z,3.55
2022-10-08T05:51:38.648Z,3.55
2022-10-08T05:54:05.846Z,4.00
2022-10-08T05:56:33.136Z,3.85
2022-10-08T05:59:00.621Z,5.55
2022-10-08T06:01:31.285Z,4.80
2022-10-08T06:04:07.069Z,4.00
2022-10-08T06:06:40.999Z,4.90
2022-10-08T06:09:12.188Z,4.05
2022-10-08T06:11:39.772Z,3.70
2022-10-08T06:14:08.257Z,6.75
2022-10-08T06:16:35.755Z,5.25
2022-10-08T06:19:09.473Z,3.88
2022-10-08T06:21:36.916Z,3.70
2022-10-08T07:24:27.328Z,18.90
2022-10-08T07:27:20.244Z,16.05
2022-10-08T07:29:47.464Z,9.88
2022-10-08T07:35:43.064Z,37.45
2022-10-08T07:38:10.268Z,5.68
2022-10-08T07:40:38.501Z,16.20
2022-10-08T07:43:05.552Z,39.88
2022-10-08T07:45:32.801Z,9.85
2022-10-08T07:48:00.013Z,7.10
2022-10-08T07:50:27.121Z,9.98
2022-10-08T07:52:54.257Z,5.82
2022-10-08T07:55:21.913Z,2.97
2022-10-08T07:57:49.159Z,2.60
2022-10-08T08:00:16.256Z,2.95
2022-10-08T08:02:44.338Z,3.15
2022-10-08T08:05:11.588Z,2.40
2022-10-08T08:07:43.117Z,2.25
2022-10-08T08:10:11.561Z,2.03
2022-10-08T08:12:38.754Z,2.30
2022-10-08T08:15:06.722Z,1.98
2022-10-08T08:17:35.637Z,1.70
2022-10-08T08:20:02.918Z,2.20
2022-10-08T08:22:30.013Z,2.35
2022-10-08T08:24:57.017Z,2.22
2022-10-08T08:27:24.076Z,0.55
2022-10-08T08:29:51.838Z,0.80
2022-10-08T08:32:19.237Z,1.10
2022-10-08T08:34:47.035Z,0.82
2022-10-08T08:37:16.737Z,0.80
2022-10-08T08:39:44.137Z,1.20
2022-10-08T08:42:43.584Z,0.93
2022-10-08T08:45:45.505Z,1.00
2022-10-08T08:48:27.015Z,0.77
2022-10-08T08:50:58.736Z,0.50
2022-10-08T08:53:26.501Z,0.77
2022-10-08T08:55:58.709Z,1.20
2022-10-08T08:58:40.141Z,1.10
2022-10-08T09:01:10.351Z,1.33
2022-10-08T09:03:51.785Z,1.00
2022-10-08T09:06:22.913Z,0.75
2022-10-08T09:09:10.257Z,1.13
2022-10-08T09:11:39.482Z,1.10
2022-10-08T09:14:10.711Z,0.60
2022-10-08T09:16:39.025Z,0.75
2022-10-08T09:19:06.346Z,0.80
2022-10-08T09:21:37.077Z,0.95
2022-10-08T09:24:04.501Z,0.73
2022-10-08T09:26:35.888Z,2.17
2022-10-08T09:29:05.426Z,1.00
2022-10-08T09:31:38.593Z,0.45
2022-10-08T09:34:18.816Z,0.75
2022-10-08T09:36:46.121Z,0.50
2022-10-08T09:39:28.415Z,0.93
2022-10-08T09:42:08.032Z,0.60
2022-10-08T09:44:48.605Z,0.32
2022-10-08T09:47:21.217Z,0.63
2022-10-08T09:50:07.402Z,0.60
2022-10-08T09:52:36.694Z,0.43
2022-10-08T09:55:21.520Z,1.38
2022-10-08T09:57:51.791Z,0.30
2022-10-08T10:00:31.614Z,0.60
2022-10-08T10:03:00.390Z,0.52
2022-10-08T10:05:32.254Z,0.40
2022-10-08T10:07:59.917Z,0.30
2022-10-08T10:10:37.201Z,0.35
2022-10-08T10:13:12.385Z,0.30
2022-10-08T10:15:46.792Z,0.50
2022-10-08T10:18:21.310Z,0.30
2022-10-08T10:20:58.751Z,0.40
2022-10-08T10:23:46.514Z,0.45
2022-10-08T10:26:22.242Z,0.50
2022-10-08T10:29:04.798Z,0.50
2022-10-08T10:34:47.950Z,0.40
2022-10-08T10:37:24.983Z,0.50
2022-10-08T10:40:00.764Z,0.50
2022-10-08T10:42:39.930Z,0.70
2022-10-08T10:45:25.956Z,0.50
2022-10-08T10:47:54.511Z,0.45
2022-10-08T10:50:34.056Z,0.70
2022-10-08T10:53:16.487Z,0.70
2022-10-08T10:56:14.866Z,0.80
2022-10-08T10:59:07.791Z,0.77
2022-10-08T11:01:56.731Z,0.70
2022-10-08T11:08:06.366Z,0.60
2022-10-08T11:13:24.575Z,0.82
2022-10-08T11:16:08.015Z,0.65
2022-10-08T11:18:35.119Z,0.85
2022-10-08T11:21:41.091Z,0.50
2022-10-08T11:24:20.879Z,0.50
2022-10-08T11:26:56.312Z,0.60
2022-10-08T11:29:46.943Z,0.57
2022-10-08T11:32:17.628Z,0.35
2022-10-08T11:35:04.576Z,0.60
2022-10-08T11:37:51.666Z,0.55
2022-10-08T11:40:28.315Z,0.50
2022-10-08T11:43:24.607Z,0.40
2022-10-08T11:46:29.051Z,0.40
2022-10-08T13:16:27.290Z,0.30
2022-10-08T13:18:58.560Z,0.30
2022-10-08T13:21:31.799Z,0.40
2022-10-08T13:27:29.648Z,0.60
2022-10-08T13:30:26.255Z,0.30
2022-10-08T13:45:06.043Z,0.52
2022-10-08T13:47:38.864Z,0.60
2022-10-08T14:28:10.118Z,0.57
2022-10-08T14:30:43.922Z,0.63
2022-10-08T14:33:17.629Z,0.95
2022-10-08T14:35:50.357Z,0.90
2022-10-08T14:38:18.316Z,0.35
2022-10-08T14:40:45.525Z,0.47
2022-10-08T14:43:13.340Z,0.40
2022-10-08T14:45:40.787Z,0.40
2022-10-08T14:48:10.329Z,0.40
2022-10-08T14:50:37.940Z,0.82
2022-10-08T14:53:12.144Z,0.65
2022-10-08T14:55:54.711Z,0.80
2022-10-08T14:58:29.413Z,0.77
2022-10-08T15:00:58.560Z,0.93
2022-10-08T15:03:26.192Z,1.40
2022-10-08T15:05:54.280Z,0.73
2022-10-08T15:08:21.557Z,0.80
2022-10-08T15:10:48.824Z,0.32
2022-10-08T15:13:25.276Z,0.50
2022-10-08T15:15:53.437Z,0.70
2022-10-08T15:18:23.601Z,1.23
2022-10-08T15:21:00.141Z,0.80
2022-10-08T15:23:27.834Z,0.70
2022-10-08T15:25:57.179Z,0.50
2022-10-08T15:28:25.785Z,0.60
2022-10-08T15:31:16.634Z,0.90
2022-10-08T15:33:45.642Z,0.70
2022-10-08T15:36:29.744Z,0.60
2022-10-08T15:39:03.565Z,0.55
2022-10-08T15:41:34.837Z,0.70
2022-10-08T15:44:15.340Z,0.70
2022-10-08T15:46:42.985Z,0.60
2022-10-08T15:49:11.426Z,0.60
2022-10-08T15:51:38.796Z,0.80
2022-10-08T15:54:05.937Z,0.80
2022-10-08T15:56:34.832Z,0.77
2022-10-08T15:59:03.113Z,0.73
2022-10-08T16:01:31.125Z,0.80
2022-10-08T16:03:58.745Z,0.82
2022-10-08T16:06:34.610Z,0.60
2022-10-08T16:09:02.687Z,0.80
2022-10-08T16:11:35.755Z,0.80
2022-10-08T16:14:08.475Z,0.70
2022-10-08T16:16:43.494Z,0.52
2022-10-08T16:19:13.534Z,0.55
2022-10-08T16:21:40.949Z,0.50
2022-10-08T16:24:08.553Z,0.63
2022-10-08T16:26:36.137Z,0.50
2022-10-08T16:29:06.434Z,0.50
2022-10-08T16:31:35.825Z,0.60
2022-10-08T16:34:06.283Z,0.70
2022-10-08T16:36:34.865Z,0.40
2022-10-08T16:39:03.662Z,0.60
2022-10-08T16:41:32.537Z,0.73
2022-10-08T16:44:06.491Z,0.68
2022-10-08T16:46:39.334Z,0.35
2022-10-08T16:49:11.952Z,0.40
2022-10-08T16:51:40.942Z,0.30
2022-10-08T16:54:11.229Z,0.60
2022-10-08T16:56:40.222Z,0.68
2022-10-08T16:59:11.038Z,3.17
2022-10-08T17:01:40.881Z,1.23
2022-10-08T17:04:09.271Z,3.70
2022-10-08T17:06:36.889Z,2.65
2022-10-08T17:09:05.405Z,38.15
2022-10-08T17:11:33.670Z,8.27
2022-10-08T17:14:18.640Z,19.45
2022-10-08T17:16:57.698Z,10.95
2022-10-08T17:19:27.826Z,20.70
2022-10-08T17:21:54.870Z,20.25
2022-10-08T17:24:22.150Z,45.08
2022-10-08T17:26:51.730Z,11.73
2022-10-08T17:29:18.959Z,21.77
2022-10-08T17:31:46.322Z,16.10
2022-10-08T17:34:13.553Z,13.75
2022-10-08T17:36:43.962Z,10.35
2022-10-08T17:39:14.042Z,8.65
2022-10-08T17:41:45.004Z,13.45
2022-10-08T17:44:51.774Z,7.78
2022-10-08T17:47:18.870Z,12.45
2022-10-08T17:49:46.069Z,8.82
2022-10-08T17:52:38.339Z,4.45
2022-10-08T17:55:06.550Z,5.63
2022-10-08T17:57:33.986Z,2.25
2022-10-08T18:00:01.190Z,2.00
2022-10-08T18:02:28.566Z,1.70
2022-10-08T18:04:56.270Z,2.60
2022-10-08T18:07:30.978Z,6.00
2022-10-08T18:10:08.617Z,3.35
2022-10-08T18:12:53.770Z,3.38
2022-10-08T18:15:37.041Z,1.30
2022-10-08T18:18:14.574Z,2.08
2022-10-08T18:20:57.942Z,2.65
2022-10-08T18:23:43.678Z,5.70
2022-10-08T18:26:36.823Z,7.13
2022-10-08T18:29:10.734Z,6.65
2022-10-08T18:31:40.077Z,3.35
2022-10-08T18:34:32.758Z,1.58
2022-10-08T18:37:00.074Z,6.78
2022-10-08T18:39:28.632Z,2.38
2022-10-08T18:42:30.037Z,3.72
2022-10-08T18:49:37.863Z,2.30
2022-10-08T18:52:05.371Z,20.35
2022-10-08T18:54:32.788Z,24.15
2022-10-08T18:57:00.510Z,62.55
2022-10-08T18:59:28.154Z,47.72
2022-10-08T19:01:59.577Z,7.78
2022-10-08T19:04:27.473Z,5.15
2022-10-08T19:06:54.774Z,4.20
2022-10-08T19:09:22.139Z,8.60
2022-10-08T19:11:52.763Z,5.35
2022-10-08T19:14:21.775Z,2.33
2022-10-08T19:16:51.973Z,1.60
2022-10-08T19:21:48.810Z,11.63
2022-10-08T19:24:19.388Z,6.18
2022-10-08T19:26:48.373Z,9.77
2022-10-08T19:29:21.895Z,6.15
2022-10-08T19:31:50.442Z,5.90
2022-10-08T19:34:20.732Z,10.85
2022-10-08T19:36:48.214Z,6.13
2022-10-08T19:39:17.618Z,4.57
2022-10-08T19:41:45.206Z,3.67
2022-10-08T19:44:13.110Z,2.33
2022-10-08T19:46:40.456Z,4.25
2022-10-08T19:49:08.807Z,1.70
2022-10-08T19:51:36.639Z,1.50
2022-10-08T19:54:04.263Z,3.40
2022-10-08T19:56:31.267Z,3.05
2022-10-08T19:58:58.920Z,3.47
2022-10-08T20:01:31.968Z,2.63
2022-10-08T20:04:00.496Z,2.20
2022-10-08T20:06:30.723Z,1.88
2022-10-08T20:09:01.028Z,1.42
2022-10-08T20:11:30.344Z,1.70
2022-10-08T20:14:31.739Z,1.40
2022-10-08T20:51:44.883Z,1.27
2022-10-08T20:54:16.912Z,1.40
2022-10-08T20:56:54.568Z,1.10
2022-10-08T20:59:23.008Z,0.93
2022-10-08T21:01:51.366Z,0.93
2022-10-08T21:04:25.386Z,1.15
2022-10-08T21:07:20.022Z,1.27
2022-10-08T21:09:48.732Z,1.20
2022-10-08T21:12:15.949Z,1.35
2022-10-08T21:14:43.512Z,1.05
2022-10-08T21:17:10.780Z,1.05
2022-10-08T21:19:38.464Z,0.65
2022-10-08T21:25:00.199Z,1.15
2022-10-08T21:27:30.397Z,1.10
2022-10-08T21:29:57.812Z,0.80
2022-10-08T21:32:24.982Z,1.13
2022-10-08T21:34:52.460Z,1.23
2022-10-08T21:37:20.516Z,1.13
2022-10-08T21:39:47.993Z,0.93
2022-10-08T21:42:15.620Z,0.90
2022-10-08T21:44:43.524Z,0.95
2022-10-08T21:47:12.837Z,0.70
2022-10-08T21:49:46.029Z,1.13
2022-10-08T21:52:14.448Z,0.90
2022-10-08T21:54:42.009Z,0.65
2022-10-08T21:57:16.188Z,0.68
2022-10-08T21:59:43.973Z,1.33
2022-10-08T22:02:11.452Z,0.65
2022-10-08T22:04:45.105Z,0.80
2022-10-08T22:07:13.709Z,0.88
2022-10-08T22:09:47.010Z,0.80
2022-10-08T22:12:18.060Z,0.73
2022-10-08T22:14:46.722Z,0.65
2022-10-08T22:17:23.936Z,0.90
2022-10-08T22:19:51.552Z,0.93
2022-10-08T22:22:19.665Z,1.13
2022-10-08T22:24:49.671Z,0.82
2022-10-08T22:27:17.941Z,0.70
2022-10-08T22:29:45.614Z,1.00
2022-10-08T22:32:16.117Z,1.00
2022-10-08T22:34:43.520Z,0.73
2022-10-08T22:37:13.973Z,0.90
2022-10-08T22:39:41.725Z,1.65
2022-10-08T22:42:13.009Z,1.00
2022-10-08T22:44:43.910Z,1.00
2022-10-08T22:47:11.617Z,0.70
2022-10-08T22:49:42.730Z,1.27
2022-10-08T22:52:13.489Z,1.02
2022-10-08T22:54:41.450Z,1.35
2022-10-08T22:57:08.887Z,1.35
2022-10-08T22:59:36.801Z,1.10
2022-10-08T23:02:04.999Z,1.00
2022-10-08T23:04:35.589Z,1.35
2022-10-08T23:07:05.437Z,1.15
2022-10-08T23:09:35.524Z,0.90
2022-10-08T23:12:03.062Z,1.75
2022-10-08T23:14:33.585Z,1.00
2022-10-08T23:17:04.527Z,1.30
2022-10-08T23:19:40.262Z,1.60
2022-10-08T23:22:07.478Z,1.70
2022-10-08T23:24:35.353Z,1.40
2022-10-08T23:27:06.413Z,1.40
2022-10-08T23:29:37.345Z,1.63
2022-10-08T23:32:04.915Z,1.83
2022-10-08T23:34:32.823Z,2.30
2022-10-08T23:37:01.010Z,1.45
2022-10-08T23:39:28.590Z,1.80
2022-10-08T23:41:58.458Z,1.33
2022-10-08T23:44:26.298Z,1.42
2022-10-08T23:46:53.618Z,1.30
2022-10-08T23:49:22.862Z,0.95
2022-10-08T23:51:50.658Z,1.52
2022-10-08T23:54:17.767Z,1.17
2022-10-08T23:56:45.387Z,0.98
2022-10-08T23:59:12.994Z,0.80
